Time;durP1;ratioP1;P1;durP2;ratioP2;P2;SDS_P1;SDS_P2;PMS_P1;PMS_P2;Temp;Humidity;BMP_temperature;BMP_pressure;BME280_temperature;BME280_humidity;BME280_pressure;Samples;Min_cycle;Max_cycle;Signal;HPM_P1;HPM_P2
2021/11/13 00:00:22;;;;;;;17.98;11.93;;;;;;;5.27;73.46;97877.06;10586794;27;20068;-79
2021/11/13 00:05:48;;;;;;;18.65;11.75;;;;;;;5.20;72.93;97872.25;10575831;27;20118;-80
2021/11/13 00:11:11;;;;;;;17.40;10.50;;;;;;;5.16;73.73;97878.19;10601188;27;20085;-79
2021/11/13 00:16:34;;;;;;;20.08;12.00;;;;;;;5.14;73.51;97877.28;10587046;27;20039;-80
2021/11/13 00:21:55;;;;;;;17.52;11.75;;;;;;;5.20;73.75;97872.25;10586001;27;20054;-80
2021/11/13 00:27:22;;;;;;;18.10;11.85;;;;;;;5.27;73.75;97856.94;10602067;27;20067;-80
2021/11/13 00:32:44;;;;;;;16.77;11.32;;;;;;;5.32;74.03;97864.34;10569760;27;20071;-79
2021/11/13 00:38:05;;;;;;;20.52;12.30;;;;;;;5.38;73.74;97846.22;10600015;27;20043;-80
2021/11/13 00:43:27;;;;;;;18.65;11.32;;;;;;;5.38;73.72;97846.22;10571786;27;20063;-79
2021/11/13 00:48:48;;;;;;;16.08;10.80;;;;;;;5.34;73.55;97845.88;10613521;27;20063;-80
2021/11/13 00:54:09;;;;;;;19.17;11.05;;;;;;;5.24;74.20;97841.47;10599255;27;20066;-79
2021/11/13 00:59:30;;;;;;;15.55;10.77;;;;;;;5.24;74.21;97847.75;10571160;27;20039;-80
2021/11/13 01:04:56;;;;;;;16.45;10.15;;;;;;;5.19;74.04;97845.88;10587280;27;20053;-79
2021/11/13 01:10:18;;;;;;;19.10;11.75;;;;;;;5.28;74.53;97847.34;10598668;27;20050;-79
2021/11/13 01:15:39;;;;;;;17.73;10.57;;;;;;;5.31;74.34;97851.78;10584361;27;20043;-79
2021/11/13 01:21:00;;;;;;;17.23;10.85;;;;;;;5.30;74.30;97853.06;10583941;27;20043;-78
2021/11/13 01:26:21;;;;;;;16.42;10.95;;;;;;;5.38;74.16;97845.47;10583823;27;20035;-79
2021/11/13 01:31:42;;;;;;;18.60;11.32;;;;;;;5.39;74.31;97842.16;10597604;27;20039;-81
2021/11/13 01:37:05;;;;;;;16.65;10.57;;;;;;;5.28;74.01;97830.75;10598084;27;20490;-80
2021/11/13 01:42:28;;;;;;;18.38;10.85;;;;;;;5.27;74.30;97830.00;10583012;27;20131;-77
2021/11/13 01:47:49;;;;;;;16.30;10.57;;;;;;;5.21;74.20;97826.72;10569255;27;20064;-79
2021/11/13 01:53:11;;;;;;;16.65;10.55;;;;;;;5.26;74.39;97831.31;10582496;27;20137;-80
2021/11/13 01:58:32;;;;;;;15.20;10.35;;;;;;;5.33;74.60;97821.53;10582820;27;20490;-80
2021/11/13 02:03:53;;;;;;;17.80;10.80;;;;;;;5.32;74.60;97820.06;10582063;27;20444;-82
2021/11/13 02:09:16;;;;;;;13.32;8.45;;;;;;;5.30;74.40;97812.28;10596519;27;20516;-81
2021/11/13 02:14:38;;;;;;;18.13;10.15;;;;;;;5.27;74.45;97813.41;10568974;27;20481;-79
2021/11/13 02:20:19;;;;;;;15.52;9.20;;;;;;;5.34;74.33;97800.84;10582658;27;20067;-78
2021/11/13 02:25:40;;;;;;;14.35;8.80;;;;;;;5.39;74.47;97786.78;10610609;27;20071;-81
2021/11/13 02:31:02;;;;;;;14.85;9.68;;;;;;;5.34;74.49;97784.25;10595528;27;20063;-79
2021/11/13 02:36:23;;;;;;;13.60;9.82;;;;;;;5.28;74.45;97786.47;10581605;27;20402;-78
2021/11/13 02:41:45;;;;;;;14.85;9.80;;;;;;;5.24;74.89;97781.31;10581454;27;20522;-80
2021/11/13 02:47:06;;;;;;;16.67;10.32;;;;;;;5.21;74.78;97782.44;10581698;28;20054;-79
2021/11/13 02:52:27;;;;;;;15.90;8.90;;;;;;;5.27;75.00;97790.53;10595454;28;20065;-80
2021/11/13 02:57:48;;;;;;;14.43;9.45;;;;;;;5.27;74.73;97791.25;10580850;28;20043;-79
2021/11/13 03:03:14;;;;;;;15.10;8.43;;;;;;;5.32;74.81;97782.03;10575602;28;20157;-80
2021/11/13 03:08:35;;;;;;;13.52;8.85;;;;;;;5.34;74.67;97773.91;10580980;28;20653;-79
2021/11/13 03:13:57;;;;;;;12.90;8.40;;;;;;;5.38;74.68;97779.03;10594883;28;20413;-78
2021/11/13 03:19:18;;;;;;;15.23;9.32;;;;;;;5.42;75.06;97785.69;10595159;28;20067;-77
2021/11/13 03:24:39;;;;;;;12.73;8.25;;;;;;;5.52;74.82;97785.84;10580677;28;20096;-79
2021/11/13 03:30:03;;;;;;;14.95;8.13;;;;;;;5.54;74.92;97791.53;10595053;28;20116;-81
2021/11/13 03:35:27;;;;;;;11.73;7.43;;;;;;;5.61;74.21;97796.31;10594084;28;20047;-81
2021/11/13 03:40:51;;;;;;;14.40;7.78;;;;;;;5.61;74.41;97801.13;10579970;28;20049;-79
2021/11/13 03:46:13;;;;;;;12.23;7.65;;;;;;;5.53;73.99;97806.69;10591647;28;20067;-81
2021/11/13 03:51:34;;;;;;;13.13;7.50;;;;;;;5.58;74.28;97799.47;10582175;27;20051;-81
2021/11/13 03:56:55;;;;;;;14.00;8.30;;;;;;;5.63;74.20;97815.88;10585761;27;20057;-78
2021/11/13 04:02:15;;;;;;;14.75;7.95;;;;;;;5.65;74.67;97802.19;10601229;27;20125;-80
2021/11/13 04:07:37;;;;;;;14.10;8.27;;;;;;;5.64;74.66;97800.72;10599577;27;20084;-80
2021/11/13 04:12:58;;;;;;;12.63;7.72;;;;;;;5.64;74.44;97797.97;10584967;27;20035;-77
2021/11/13 04:18:19;;;;;;;10.82;7.25;;;;;;;5.66;74.57;97795.38;10582342;27;20035;-81
2021/11/13 04:23:40;;;;;;;12.32;7.72;;;;;;;5.69;74.11;97796.28;10598940;27;20129;-79
2021/11/13 04:29:02;;;;;;;10.93;7.43;;;;;;;5.71;74.38;97796.47;10581337;27;20035;-79
2021/11/13 04:34:24;;;;;;;10.18;7.25;;;;;;;5.69;74.44;97796.28;10582625;27;20496;-79
2021/11/13 04:39:46;;;;;;;12.88;7.53;;;;;;;5.74;74.56;97795.34;10584655;27;20047;-79
2021/11/13 04:45:07;;;;;;;11.35;6.90;;;;;;;5.71;74.53;97786.13;10585772;27;20044;-80
2021/11/13 04:50:33;;;;;;;10.35;7.53;;;;;;;5.66;74.24;97798.13;10586366;27;20078;-81
2021/11/13 04:55:54;;;;;;;12.88;7.57;;;;;;;5.72;74.08;97797.94;10585882;27;20039;-78
2021/11/13 05:01:15;;;;;;;11.25;7.72;;;;;;;5.73;74.63;97785.56;10585738;27;20493;-82
2021/11/13 05:06:36;;;;;;;10.68;7.25;;;;;;;5.74;74.43;97792.56;10598314;27;20455;-80
2021/11/13 05:11:58;;;;;;;13.25;8.00;;;;;;;5.65;73.97;97793.16;10563573;28;20393;-80
2021/11/13 05:17:19;;;;;;;11.80;7.88;;;;;;;5.62;74.65;97803.34;10542882;28;20463;-82
2021/11/13 05:22:43;;;;;;;12.73;7.75;;;;;;;5.63;74.60;97809.59;10557059;28;20043;-80
2021/11/13 05:28:04;;;;;;;13.15;8.48;;;;;;;5.65;74.76;97804.25;10556475;28;20047;-79
2021/11/13 05:33:28;;;;;;;15.27;8.27;;;;;;;5.68;74.96;97800.34;10528251;28;20050;-79
2021/11/13 05:38:49;;;;;;;11.57;7.23;;;;;;;5.70;74.66;97804.03;10555931;28;20394;-78
2021/11/13 05:44:10;;;;;;;11.60;7.63;;;;;;;5.71;74.68;97799.25;10542737;28;20062;-81
2021/11/13 05:49:32;;;;;;;10.48;6.90;;;;;;;5.72;74.59;97806.97;10544993;28;20059;-80
2021/11/13 05:54:53;;;;;;;12.70;7.65;;;;;;;5.76;74.71;97801.03;10569621;28;20055;-81
2021/11/13 06:00:16;;;;;;;12.45;8.07;;;;;;;5.79;74.50;97799.94;10526742;28;20444;-80
2021/11/13 06:05:37;;;;;;;14.45;8.80;;;;;;;5.78;74.29;97797.72;10554775;28;20466;-80
2021/11/13 06:10:59;;;;;;;12.70;8.55;;;;;;;5.73;74.45;97807.72;10526641;28;20166;-81
2021/11/13 06:16:20;;;;;;;13.98;8.65;;;;;;;5.70;74.53;97790.19;10553848;28;20126;-78
2021/11/13 06:21:41;;;;;;;13.32;8.63;;;;;;;5.67;74.27;97798.88;10554554;28;20047;-82
2021/11/13 06:27:04;;;;;;;11.27;7.45;;;;;;;5.63;74.63;97801.31;10541539;28;20101;-79
2021/11/13 06:32:25;;;;;;;11.80;7.95;;;;;;;5.58;74.40;97814.03;10541340;28;20035;-80
2021/11/13 06:37:49;;;;;;;11.98;7.03;;;;;;;5.58;74.42;97814.03;10554946;28;20051;-79
2021/11/13 06:43:19;;;;;;;11.63;7.70;;;;;;;5.59;74.76;97817.53;10566965;27;20065;-79
2021/11/13 06:48:40;;;;;;;14.77;8.40;;;;;;;5.62;74.60;97822.72;10584201;28;20043;-82
2021/11/13 06:54:01;;;;;;;14.88;8.13;;;;;;;5.64;74.04;97825.66;10578781;28;20051;-81
2021/11/13 06:59:22;;;;;;;11.55;7.57;;;;;;;5.67;73.94;97823.78;10595097;28;20126;-77
2021/11/13 07:04:43;;;;;;;11.40;7.13;;;;;;;5.76;74.52;97831.50;10595106;28;20070;-78
2021/11/13 07:10:10;;;;;;;11.45;7.20;;;;;;;5.84;74.07;97832.22;10580596;28;20031;-80
2021/11/13 07:15:31;;;;;;;12.52;7.70;;;;;;;5.92;73.93;97841.28;10581218;28;20126;-83
2021/11/13 07:20:57;;;;;;;14.27;7.90;;;;;;;5.96;73.89;97824.97;10595179;28;20043;-80
2021/11/13 07:26:19;;;;;;;11.98;6.82;;;;;;;5.98;74.02;97822.41;10597435;27;20035;-81
2021/11/13 07:31:40;;;;;;;11.07;6.85;;;;;;;6.05;73.83;97828.47;10587872;27;20478;-82
2021/11/13 07:37:01;;;;;;;13.85;7.90;;;;;;;6.08;73.42;97824.56;10602118;27;20042;-80
2021/11/13 07:42:22;;;;;;;11.07;7.05;;;;;;;6.09;73.30;97823.28;10602773;27;20071;-82
2021/11/13 07:47:45;;;;;;;12.32;6.65;;;;;;;6.14;73.20;97822.31;10602065;27;20039;-81
2021/11/13 07:53:06;;;;;;;11.05;7.50;;;;;;;6.20;73.18;97825.63;10585485;27;20059;-81
2021/11/13 07:58:27;;;;;;;14.05;7.07;;;;;;;6.26;73.29;97820.56;10586659;27;20072;-82
2021/11/13 08:03:47;;;;;;;10.57;6.63;;;;;;;6.35;72.93;97819.97;10584811;27;20439;-76
2021/11/13 08:09:09;;;;;;;13.27;7.68;;;;;;;6.41;73.24;97826.03;10601605;27;20035;-74
2021/11/13 08:14:29;;;;;;;13.00;7.20;;;;;;;6.42;73.08;97821.22;10598154;27;20043;-77
2021/11/13 08:19:51;;;;;;;11.73;7.20;;;;;;;6.42;72.83;97833.03;10598945;27;20180;-75
2021/11/13 08:25:13;;;;;;;11.82;7.55;;;;;;;6.43;72.30;97817.88;10575129;27;20056;-75
2021/11/13 08:30:37;;;;;;;15.20;8.77;;;;;;;6.42;72.26;97827.50;10527523;28;20512;-75
2021/11/13 08:35:59;;;;;;;14.52;8.05;;;;;;;6.42;72.73;97829.53;10544084;28;20050;-76
2021/11/13 08:41:20;;;;;;;16.45;8.13;;;;;;;6.44;72.32;97835.25;10568692;27;20067;-75
2021/11/13 08:46:41;;;;;;;15.02;9.45;;;;;;;6.44;72.42;97826.94;10585436;27;20482;-74
2021/11/13 08:52:03;;;;;;;12.68;8.23;;;;;;;6.49;72.37;97837.81;10581720;27;20063;-73
2021/11/13 08:57:24;;;;;;;12.75;8.13;;;;;;;6.52;72.40;97844.25;10584894;27;20043;-76
2021/11/13 09:02:44;;;;;;;14.40;8.27;;;;;;;6.55;71.92;97846.63;10598933;27;20054;-76
2021/11/13 09:08:07;;;;;;;10.30;7.28;;;;;;;6.53;71.57;97851.28;10585476;27;20046;-77
2021/11/13 09:13:30;;;;;;;11.05;7.35;;;;;;;6.49;71.40;97848.91;10572138;27;20039;-78
2021/11/13 09:18:51;;;;;;;12.40;7.40;;;;;;;6.42;70.66;97846.16;10584678;27;20043;-77
2021/11/13 09:24:13;;;;;;;9.77;6.40;;;;;;;6.34;71.45;97848.25;10584946;27;20043;-78
2021/11/13 09:29:38;;;;;;;12.48;7.70;;;;;;;6.40;71.37;97855.06;10598183;27;20091;-76
2021/11/13 09:34:59;;;;;;;10.25;7.05;;;;;;;6.46;71.42;97846.50;10584771;27;20077;-75
2021/11/13 09:40:22;;;;;;;9.80;7.03;;;;;;;6.49;70.96;97846.13;10583914;27;20481;-75
2021/11/13 09:45:43;;;;;;;10.73;6.82;;;;;;;6.73;70.94;97846.69;10583608;27;20405;-76
2021/11/13 09:51:04;;;;;;;12.85;7.88;;;;;;;6.94;70.49;97854.66;10582958;27;20058;-81
2021/11/13 09:56:25;;;;;;;12.10;7.07;;;;;;;6.95;69.99;97854.09;10582828;27;20054;-82
2021/11/13 10:01:47;;;;;;;10.75;6.95;;;;;;;7.00;69.67;97841.28;10582008;27;20046;-80
2021/11/13 10:07:08;;;;;;;11.10;7.18;;;;;;;7.08;70.19;97847.50;10565628;27;20055;-78
2021/11/13 10:12:37;;;;;;;14.63;8.52;;;;;;;7.09;69.74;97846.94;10582395;27;20125;-78
2021/11/13 10:18:13;;;;;;;13.63;9.02;;;;;;;7.15;69.26;97846.72;10581932;27;20505;-79
2021/11/13 10:23:40;;;;;;;14.65;8.18;;;;;;;7.29;69.81;97844.34;10596372;27;20039;-77
2021/11/13 10:29:05;;;;;;;17.58;8.75;;;;;;;7.44;69.64;97838.66;10567983;27;20087;-77
2021/11/13 10:34:27;;;;;;;;;;;;;;;7.57;68.99;97841.09;10581644;27;20091;-75
2021/11/13 10:39:48;;;;;;;13.77;9.43;;;;;;;7.67;69.16;97832.84;10595704;27;19942;-80
2021/11/13 10:45:09;;;;;;;15.32;9.07;;;;;;;7.72;68.81;97829.81;10580970;27;20062;-77
2021/11/13 10:50:30;;;;;;;15.52;9.32;;;;;;;7.82;68.23;97831.94;10581090;28;20099;-77
2021/11/13 10:56:23;;;;;;;12.05;8.55;;;;;;;7.66;67.91;97823.03;10595151;28;20480;-79
2021/11/13 11:01:46;;;;;;;11.65;8.07;;;;;;;7.75;68.30;97825.88;10612597;27;20039;-81
2021/11/13 11:07:10;;;;;;;14.25;8.50;;;;;;;7.91;68.43;97834.00;10573452;27;20077;-84
2021/11/13 11:12:33;;;;;;;11.18;8.10;;;;;;;7.91;67.73;97834.78;10589310;27;20470;-75
2021/11/13 11:17:56;;;;;;;11.68;8.00;;;;;;;7.86;68.29;97826.69;10588845;27;20039;-78
2021/11/13 11:23:17;;;;;;;11.30;7.70;;;;;;;7.82;67.91;97826.38;10589491;27;20424;-76
2021/11/13 11:28:56;;;;;;;10.65;8.50;;;;;;;7.75;67.28;97827.94;10604592;27;20041;-76
2021/11/13 11:34:23;;;;;;;15.38;8.63;;;;;;;7.65;67.25;97816.00;10571842;27;20193;-76
2021/11/13 11:39:46;;;;;;;11.43;7.50;;;;;;;7.60;67.43;97809.38;10588069;27;20035;-78
2021/11/13 11:45:10;;;;;;;11.20;7.90;;;;;;;7.62;67.35;97811.59;10571819;27;20047;-80
2021/11/13 11:50:31;;;;;;;12.57;8.73;;;;;;;7.61;67.61;97804.56;10607374;27;20074;-78
2021/11/13 11:55:53;;;;;;;11.77;8.10;;;;;;;7.59;67.14;97793.28;10587653;27;20042;-75
2021/11/13 12:01:28;;;;;;;15.23;8.20;;;;;;;7.65;66.46;97785.44;10615364;27;20050;-78
2021/11/13 12:06:54;;;;;;;12.45;8.00;;;;;;;7.71;66.77;97794.97;10587477;27;20474;-81
2021/11/13 12:12:17;;;;;;;11.68;7.18;;;;;;;7.68;66.62;97796.13;10601895;27;20050;-78
2021/11/13 12:17:39;;;;;;;10.88;7.68;;;;;;;7.57;66.19;97785.53;10586997;27;20039;-78
2021/11/13 12:23:10;;;;;;;10.82;7.50;;;;;;;7.69;66.51;97788.53;10586577;27;20046;-79
2021/11/13 12:28:32;;;;;;;12.32;8.57;;;;;;;7.68;66.40;97782.25;10586008;27;20039;-75
2021/11/13 12:34:15;;;;;;;11.73;8.63;;;;;;;7.69;65.59;97780.94;10586112;27;20043;-76
2021/11/13 12:39:43;;;;;;;13.27;9.02;;;;;;;7.61;66.18;97769.19;10614790;27;20413;-75
2021/11/13 12:45:08;;;;;;;14.18;8.90;;;;;;;7.66;66.04;97768.19;10585555;27;20050;-76
2021/11/13 12:50:30;;;;;;;12.95;9.10;;;;;;;7.67;65.79;97772.44;10600104;27;20086;-76
2021/11/13 12:55:51;;;;;;;15.45;10.00;;;;;;;7.46;65.26;97775.66;10599157;27;20046;-76
2021/11/13 13:01:12;;;;;;;14.82;10.20;;;;;;;7.27;65.50;97783.84;10584997;27;20050;-81
2021/11/13 13:06:44;;;;;;;14.38;10.30;;;;;;;7.18;66.01;97776.91;10613276;27;20039;-81
2021/11/13 13:12:05;;;;;;;15.95;10.85;;;;;;;7.07;66.18;97774.59;10598684;27;20047;-81
2021/11/13 13:17:28;;;;;;;15.25;10.18;;;;;;;7.16;66.26;97764.91;10584339;27;20063;-82
2021/11/13 13:22:49;;;;;;;16.02;10.60;;;;;;;7.25;66.27;97755.91;10583410;27;20051;-81
2021/11/13 13:28:10;;;;;;;17.27;10.40;;;;;;;7.32;66.28;97746.00;10569645;27;20043;-81
2021/11/13 13:33:31;;;;;;;14.43;9.52;;;;;;;7.35;65.91;97742.13;10583607;27;20174;-80
2021/11/13 13:38:56;;;;;;;15.05;10.20;;;;;;;7.36;66.25;97749.13;10584267;27;20394;-81
2021/11/13 13:44:20;;;;;;;14.23;10.00;;;;;;;7.37;66.36;97751.34;10598582;27;20058;-80
2021/11/13 13:49:40;;;;;;;15.93;10.83;;;;;;;7.34;66.14;97752.47;10583120;27;20047;-81
2021/11/13 13:55:03;;;;;;;15.30;10.40;;;;;;;7.29;65.92;97749.94;10582860;27;20038;-81
2021/11/13 14:00:24;;;;;;;16.08;11.00;;;;;;;7.14;66.08;97754.38;10568846;27;20039;-76
2021/11/13 14:05:46;;;;;;;17.38;12.02;;;;;;;7.03;66.06;97763.16;10567719;27;20050;-76
2021/11/13 14:11:07;;;;;;;17.10;11.18;;;;;;;6.94;66.05;97755.47;10582468;27;20058;-75
2021/11/13 14:16:34;;;;;;;19.05;11.77;;;;;;;6.85;66.52;97765.22;10567798;27;20319;-75
2021/11/13 14:22:03;;;;;;;16.38;11.38;;;;;;;6.78;66.64;97762.50;10581537;27;20130;-75
2021/11/13 14:27:23;;;;;;;17.38;11.85;;;;;;;6.82;66.79;97760.03;10587656;27;20035;-76
2021/11/13 14:32:52;;;;;;;16.70;12.05;;;;;;;6.78;67.05;97766.00;10570391;27;20400;-79
2021/11/13 14:38:13;;;;;;;19.73;13.60;;;;;;;6.80;66.82;97776.53;10565204;27;20046;-76
2021/11/13 14:43:35;;;;;;;19.80;12.40;;;;;;;6.84;67.03;97785.19;10588612;27;20046;-74
2021/11/13 14:49:02;;;;;;;19.35;12.43;;;;;;;6.88;66.99;97785.53;10575485;27;20070;-76
2021/11/13 14:54:23;;;;;;;22.00;13.20;;;;;;;6.87;67.03;97793.13;10566637;28;20503;-74
2021/11/13 14:59:44;;;;;;;19.13;12.07;;;;;;;6.86;67.05;97793.69;10597145;28;20039;-75
2021/11/13 15:05:07;;;;;;;18.65;11.70;;;;;;;6.82;67.02;97782.25;10562855;28;20469;-74
2021/11/13 15:10:29;;;;;;;20.30;12.90;;;;;;;6.73;67.29;97785.66;10577772;28;20381;-78
2021/11/13 15:15:51;;;;;;;18.65;12.15;;;;;;;6.73;67.48;97785.66;10577620;28;20474;-79
2021/11/13 15:21:12;;;;;;;21.75;13.00;;;;;;;6.74;67.69;97795.44;10580414;28;20043;-78
2021/11/13 15:26:34;;;;;;;24.50;14.32;;;;;;;6.60;67.16;97795.75;10595336;28;20118;-83
2021/11/13 15:31:56;;;;;;;24.98;14.35;;;;;;;6.60;68.33;97792.25;10580615;28;20047;-79
2021/11/13 15:37:18;;;;;;;23.42;14.68;;;;;;;6.63;67.95;97790.38;10580630;28;20435;-81
2021/11/13 15:42:40;;;;;;;25.15;14.60;;;;;;;6.56;67.91;97803.75;10580635;28;20059;-83
2021/11/13 15:48:02;;;;;;;22.00;14.82;;;;;;;6.56;67.41;97805.75;10598078;27;20043;-82
2021/11/13 15:53:23;;;;;;;26.85;16.30;;;;;;;6.52;67.87;97795.06;10587428;27;20469;-81
2021/11/13 15:58:47;;;;;;;24.15;15.85;;;;;;;6.58;68.25;97803.91;10573096;27;20042;-81
2021/11/13 16:04:08;;;;;;;27.08;17.00;;;;;;;6.54;68.54;97797.28;10601606;27;20058;-83
2021/11/13 16:09:29;;;;;;;27.85;16.77;;;;;;;6.50;68.74;97808.03;10586907;27;20035;-82
2021/11/13 16:14:51;;;;;;;25.83;16.15;;;;;;;6.54;68.67;97811.13;10600674;27;20043;-76
2021/11/13 16:20:12;;;;;;;28.25;16.13;;;;;;;6.56;68.92;97823.16;10600669;27;20131;-79
2021/11/13 16:25:34;;;;;;;28.38;17.65;;;;;;;6.51;68.92;97815.78;10600782;27;20127;-81
2021/11/13 16:30:55;;;;;;;29.98;17.08;;;;;;;6.40;69.03;97821.78;10585915;27;20039;-81
2021/11/13 16:36:16;;;;;;;30.95;18.50;;;;;;;6.37;69.44;97819.38;10586117;27;20073;-82
2021/11/13 16:41:37;;;;;;;28.23;17.25;;;;;;;6.40;69.38;97832.13;10600442;27;20665;-80
2021/11/13 16:46:58;;;;;;;28.00;17.30;;;;;;;6.41;69.41;97836.38;10585463;27;20039;-77
2021/11/13 16:52:19;;;;;;;29.85;17.60;;;;;;;6.44;69.31;97832.47;10571356;27;20058;-81
2021/11/13 16:57:40;;;;;;;30.45;18.63;;;;;;;6.45;69.66;97845.78;10584952;27;20039;-82
2021/11/13 17:03:02;;;;;;;30.15;18.52;;;;;;;6.48;69.92;97839.13;10571915;27;20722;-80
2021/11/13 17:08:23;;;;;;;31.20;17.77;;;;;;;6.52;69.75;97845.00;10564398;27;20054;-82
2021/11/13 17:13:46;;;;;;;26.08;18.05;;;;;;;6.56;70.13;97856.44;10585191;27;20474;-82
2021/11/13 17:19:27;;;;;;;29.10;18.20;;;;;;;6.54;69.89;97863.84;10589378;27;20402;-82
2021/11/13 17:24:48;;;;;;;29.95;17.42;;;;;;;6.56;70.01;97864.00;10571242;27;20087;-80
2021/11/13 17:30:12;;;;;;;29.45;17.92;;;;;;;6.55;70.06;97863.25;10598186;27;20043;-82
2021/11/13 17:35:33;;;;;;;29.75;18.27;;;;;;;6.49;69.86;97871.09;10584023;27;20039;-82
2021/11/13 17:40:54;;;;;;;29.92;18.30;;;;;;;6.49;69.92;97873.13;10597804;27;20096;-77
2021/11/13 17:46:15;;;;;;;25.85;17.88;;;;;;;6.52;70.48;97872.00;10597434;27;20173;-82
2021/11/13 17:51:36;;;;;;;27.67;18.10;;;;;;;6.52;70.39;97867.16;10582684;27;20122;-84
2021/11/13 17:56:59;;;;;;;27.48;17.90;;;;;;;6.54;70.13;97870.13;10597927;27;20051;-81
2021/11/13 18:02:23;;;;;;;27.63;17.33;;;;;;;6.52;70.33;97872.72;10582340;27;20039;-75
2021/11/13 18:07:44;;;;;;;27.63;18.97;;;;;;;6.55;70.66;97865.31;10584236;27;20092;-82
2021/11/13 18:13:06;;;;;;;28.23;19.92;;;;;;;6.57;70.42;97869.00;10584756;27;20039;-81
2021/11/13 18:18:27;;;;;;;30.15;19.08;;;;;;;6.56;70.48;97862.00;10598234;27;20523;-78
2021/11/13 18:23:49;;;;;;;30.80;19.95;;;;;;;6.55;70.64;97860.50;10585145;27;20377;-76
2021/11/13 18:29:14;;;;;;;32.33;20.40;;;;;;;6.60;70.67;97862.31;10585576;27;20047;-76
2021/11/13 18:34:35;;;;;;;31.92;19.60;;;;;;;6.58;70.67;97876.03;10584466;27;20043;-76
2021/11/13 18:39:56;;;;;;;34.17;22.38;;;;;;;6.47;70.95;97875.72;10598073;27;20108;-78
2021/11/13 18:45:18;;;;;;;31.75;20.33;;;;;;;6.40;71.09;97876.50;10582229;27;20036;-74
2021/11/13 18:50:39;;;;;;;37.15;22.02;;;;;;;6.39;71.15;97878.53;10597160;28;20055;-76
2021/11/13 18:56:00;;;;;;;36.40;21.50;;;;;;;6.38;71.65;97879.84;10569527;28;20532;-77
2021/11/13 19:01:21;;;;;;;31.58;20.38;;;;;;;6.39;70.89;97880.59;10583882;28;20065;-81
2021/11/13 19:06:42;;;;;;;31.88;20.38;;;;;;;6.36;71.59;97876.88;10596820;28;20099;-76
2021/11/13 19:12:03;;;;;;;30.15;20.40;;;;;;;6.43;71.63;97887.19;10579013;28;20035;-80
2021/11/13 19:17:25;;;;;;;35.55;21.15;;;;;;;6.44;71.48;97882.38;10581809;28;20043;-83
2021/11/13 19:22:47;;;;;;;38.50;22.25;;;;;;;6.38;71.40;97874.31;10584265;27;20046;-83
2021/11/13 19:28:09;;;;;;;36.83;22.98;;;;;;;6.40;71.35;97871.69;10590703;27;20047;-82
2021/11/13 19:33:30;;;;;;;37.20;23.27;;;;;;;6.41;71.54;97875.94;10589137;27;20035;-82
2021/11/13 19:38:52;;;;;;;38.10;23.42;;;;;;;6.44;71.94;97877.56;10589191;27;20083;-79
2021/11/13 19:44:13;;;;;;;39.85;23.70;;;;;;;6.46;71.81;97885.31;10588872;27;20182;-81
2021/11/13 19:49:34;;;;;;;38.47;23.40;;;;;;;6.50;72.09;97880.88;10588488;27;20047;-79
2021/11/13 19:55:07;;;;;;;42.22;26.00;;;;;;;6.47;72.09;97884.06;10590398;27;20046;-81
2021/11/13 20:00:28;;;;;;;;;;;;;;;6.41;72.46;97894.63;10588648;27;20039;-81
2021/11/13 20:05:49;;;;;;;51.03;29.05;;;;;;;6.38;72.41;97888.16;10630879;27;19919;-80
2021/11/13 20:11:10;;;;;;;42.95;26.95;;;;;;;6.42;72.51;97880.19;10587683;27;20043;-81
2021/11/13 20:16:31;;;;;;;42.80;25.85;;;;;;;6.44;72.45;97894.22;10601997;27;20390;-81
2021/11/13 20:21:56;;;;;;;36.08;24.60;;;;;;;6.44;72.88;97913.63;10601669;27;20046;-81
2021/11/13 20:27:20;;;;;;;37.33;23.33;;;;;;;6.46;72.81;97899.94;10603015;27;20047;-81
2021/11/13 20:32:42;;;;;;;35.20;23.45;;;;;;;6.50;72.90;97903.06;10600888;27;20122;-81
2021/11/13 20:38:09;;;;;;;40.67;24.15;;;;;;;6.46;72.70;97913.78;10586918;27;20131;-82
2021/11/13 20:43:31;;;;;;;34.97;23.63;;;;;;;6.44;72.80;97921.94;10574613;27;20045;-80
2021/11/13 20:48:53;;;;;;;35.22;21.95;;;;;;;6.42;72.90;97926.59;10586779;27;20043;-83
2021/11/13 20:54:15;;;;;;;35.40;24.05;;;;;;;6.41;73.12;97928.63;10601405;27;20161;-81
2021/11/13 20:59:37;;;;;;;32.40;21.63;;;;;;;6.45;72.82;97928.97;10587229;27;20039;-82
2021/11/13 21:04:58;;;;;;;36.85;23.67;;;;;;;6.44;72.80;97929.53;10586223;27;20130;-81
2021/11/13 21:10:20;;;;;;;30.48;20.85;;;;;;;6.51;73.08;97937.06;10586162;27;20039;-76
2021/11/13 21:15:42;;;;;;;32.47;21.92;;;;;;;6.50;73.03;97933.56;10571187;27;20100;-77
2021/11/13 21:21:05;;;;;;;30.35;20.63;;;;;;;6.52;73.08;97939.28;10585528;27;20047;-81
2021/11/13 21:26:26;;;;;;;30.95;21.25;;;;;;;6.54;73.54;97936.69;10583949;27;20394;-76
2021/11/13 21:31:47;;;;;;;30.33;20.08;;;;;;;6.52;73.46;97928.19;10597305;27;20047;-74
2021/11/13 21:37:09;;;;;;;33.55;21.33;;;;;;;6.51;73.68;97926.72;10598729;27;20042;-77
2021/11/13 21:42:32;;;;;;;32.55;21.25;;;;;;;6.51;73.63;97932.25;10584173;27;20047;-76
2021/11/13 21:47:53;;;;;;;32.50;21.30;;;;;;;6.49;73.89;97926.56;10581688;27;20074;-74
2021/11/13 21:53:15;;;;;;;32.10;21.38;;;;;;;6.50;74.03;97930.78;10581343;27;20127;-78
2021/11/13 21:58:37;;;;;;;31.27;21.90;;;;;;;6.51;74.02;97929.50;10581918;27;20064;-75
2021/11/13 22:03:58;;;;;;;29.35;20.83;;;;;;;6.48;74.03;97925.06;10526490;28;20066;-76
2021/11/13 22:09:20;;;;;;;33.53;21.77;;;;;;;6.45;74.16;97923.41;10538054;28;20049;-76
2021/11/13 22:14:41;;;;;;;30.50;20.95;;;;;;;6.41;74.22;97928.63;10554133;28;20050;-76
2021/11/13 22:20:22;;;;;;;32.50;22.73;;;;;;;6.29;74.02;97930.34;10568305;28;20042;-74
2021/11/13 22:25:45;;;;;;;34.25;21.70;;;;;;;6.26;74.28;97920.38;10540268;28;20040;-76
2021/11/13 22:31:06;;;;;;;34.38;22.42;;;;;;;6.20;75.23;97919.84;10554290;28;20126;-76
2021/11/13 22:36:27;;;;;;;34.13;22.52;;;;;;;6.20;74.69;97923.38;10540225;28;20494;-75
2021/11/13 22:41:50;;;;;;;37.53;23.13;;;;;;;6.24;74.80;97937.56;10553992;28;20044;-76
2021/11/13 22:47:11;;;;;;;32.08;20.73;;;;;;;6.34;74.69;97934.19;10539556;28;20047;-76
2021/11/13 22:52:32;;;;;;;33.92;21.65;;;;;;;6.31;74.79;97938.84;10552751;28;20058;-76
2021/11/13 22:57:54;;;;;;;36.72;22.60;;;;;;;6.30;74.85;97943.66;10562160;28;20043;-75
2021/11/13 23:03:25;;;;;;;34.40;22.15;;;;;;;6.36;74.74;97940.66;10571391;22;20056;-79
2021/11/13 23:08:47;;;;;;;33.92;21.80;;;;;;;6.41;74.86;97936.94;10538788;28;20399;-78
2021/11/13 23:14:08;;;;;;;36.75;24.10;;;;;;;6.41;74.97;97942.47;10523860;28;20074;-79
2021/11/13 23:19:29;;;;;;;36.72;23.98;;;;;;;6.44;74.71;97948.94;10524771;28;20039;-78
2021/11/13 23:24:51;;;;;;;36.67;24.50;;;;;;;6.42;74.95;97955.03;10537969;28;20451;-77
2021/11/13 23:30:13;;;;;;;39.30;24.77;;;;;;;6.45;74.76;97951.16;10537866;28;20044;-78
2021/11/13 23:35:34;;;;;;;37.30;23.92;;;;;;;6.47;75.37;97958.94;10523568;28;20036;-77
2021/11/13 23:40:56;;;;;;;36.92;24.60;;;;;;;6.45;75.36;97958.72;10523892;28;20099;-78
2021/11/13 23:46:17;;;;;;;38.28;23.98;;;;;;;6.44;75.26;97960.75;10537819;28;20040;-78
2021/11/13 23:51:39;;;;;;;35.30;23.17;;;;;;;6.49;75.35;97962.59;10537786;28;20036;-77
2021/11/13 23:57:01;;;;;;;33.97;22.70;;;;;;;6.52;75.45;97955.91;10537629;28;20478;-78
